Time;durP1;ratioP1;P1;durP2;ratioP2;P2;SDS_P1;SDS_P2;PMS_P1;PMS_P2;Temp;Humidity;BMP_temperature;BMP_pressure;BME280_temperature;BME280_humidity;BME280_pressure;Samples;Min_cycle;Max_cycle;Signal;HPM_P1;HPM_P2
2022/10/15 00:00:16;;;;;;;14.63;13.43;;;;;;;11.59;85.02;93043.78;5070167;28;20196;-71
2022/10/15 00:02:41;;;;;;;13.67;12.53;;;;;;;11.61;85.54;93041.69;5070097;28;20200;-70
2022/10/15 00:05:07;;;;;;;12.37;11.47;;;;;;;11.52;86.07;93049.31;5069855;28;20222;-70
2022/10/15 00:07:32;;;;;;;10.93;10.23;;;;;;;11.43;86.85;93048.34;5070159;28;20335;-70
2022/10/15 00:09:58;;;;;;;12.33;11.53;;;;;;;11.34;87.57;93035.09;5070288;28;20229;-70
2022/10/15 00:12:23;;;;;;;12.13;11.23;;;;;;;11.36;87.89;93043.41;5066817;28;20212;-70
2022/10/15 00:14:49;;;;;;;12.83;11.83;;;;;;;11.45;87.88;93042.84;5070355;28;20219;-70
2022/10/15 00:17:14;;;;;;;12.27;11.47;;;;;;;11.31;88.21;93040.81;5070032;28;20321;-72
2022/10/15 00:19:40;;;;;;;12.90;12.07;;;;;;;11.17;88.55;93021.56;5070584;28;20218;-70
2022/10/15 00:22:05;;;;;;;13.17;11.97;;;;;;;11.18;89.02;93032.81;5070386;28;20225;-71
2022/10/15 00:24:31;;;;;;;12.33;11.53;;;;;;;11.32;88.62;93045.03;5070318;28;20217;-69
2022/10/15 00:26:56;;;;;;;11.30;10.47;;;;;;;11.10;88.90;93002.03;5069500;28;20200;-70
2022/10/15 00:29:21;;;;;;;12.60;11.60;;;;;;;11.26;89.41;93033.03;5054617;28;20306;-70
2022/10/15 00:31:47;;;;;;;12.53;11.63;;;;;;;11.30;89.26;93028.81;5050080;28;20275;-71
2022/10/15 00:34:12;;;;;;;10.93;10.23;;;;;;;11.24;89.15;93031.72;5049447;28;20226;-70
2022/10/15 00:36:37;;;;;;;10.30;9.60;;;;;;;11.19;89.52;93029.94;5050157;28;20915;-70
2022/10/15 00:39:04;;;;;;;12.43;11.60;;;;;;;11.24;89.79;93031.72;5061822;28;20233;-71
2022/10/15 00:41:33;;;;;;;11.13;10.43;;;;;;;11.20;89.90;93035.94;5069337;28;20213;-70
2022/10/15 00:44:00;;;;;;;11.83;10.77;;;;;;;11.21;89.82;93022.63;5069516;28;20234;-71
2022/10/15 00:46:36;;;;;;;12.23;11.43;;;;;;;11.11;90.18;93020.06;5069697;28;20193;-70
2022/10/15 00:49:13;;;;;;;11.87;10.97;;;;;;;11.09;90.62;93019.56;5069511;28;20239;-70
2022/10/15 00:51:46;;;;;;;11.37;10.47;;;;;;;11.10;90.67;93010.66;5069974;28;20225;-69
2022/10/15 00:54:13;;;;;;;12.90;11.83;;;;;;;11.18;90.42;93010.09;5069379;28;20225;-70
2022/10/15 00:56:42;;;;;;;12.73;11.73;;;;;;;11.17;90.25;93008.50;5069708;28;20294;-71
2022/10/15 00:59:10;;;;;;;12.43;11.50;;;;;;;11.34;89.46;93010.75;5069062;28;20285;-70
2022/10/15 01:01:36;;;;;;;14.23;13.07;;;;;;;11.34;88.71;93010.75;5069431;28;20229;-70
2022/10/15 01:04:03;;;;;;;14.97;13.57;;;;;;;11.32;87.77;93013.66;5069251;28;20229;-70
2022/10/15 01:06:29;;;;;;;20.07;18.07;;;;;;;11.50;87.58;93006.19;5069749;28;20191;-70
2022/10/15 01:08:55;;;;;;;15.40;14.10;;;;;;;11.35;87.51;93010.50;5067632;28;20273;-71
2022/10/15 01:11:34;;;;;;;13.63;12.53;;;;;;;11.35;88.15;93010.50;5069508;28;20207;-70
2022/10/15 01:14:04;;;;;;;11.87;10.97;;;;;;;11.27;88.23;93010.28;5067897;28;20221;-70
2022/10/15 01:16:48;;;;;;;12.17;11.23;;;;;;;11.35;86.62;93007.09;5068895;28;20217;-70
2022/10/15 01:19:16;;;;;;;11.00;10.40;;;;;;;11.32;85.94;93007.63;5068756;28;20255;-70
2022/10/15 01:21:45;;;;;;;11.80;11.10;;;;;;;11.36;85.39;93009.44;5069079;28;20185;-70
2022/10/15 01:24:42;;;;;;;11.93;10.93;;;;;;;11.41;85.29;93000.75;5068818;28;20256;-70
2022/10/15 01:27:30;;;;;;;12.00;11.23;;;;;;;11.38;85.35;93004.72;5068142;28;20189;-70
2022/10/15 01:30:20;;;;;;;10.70;10.00;;;;;;;11.36;84.32;93000.81;5067749;28;20235;-70
2022/10/15 01:33:09;;;;;;;11.80;10.97;;;;;;;11.46;83.19;93003.34;5067108;28;20193;-71
2022/10/15 01:35:43;;;;;;;10.90;10.30;;;;;;;11.32;84.47;93002.41;5069404;28;20178;-71
2022/10/15 01:38:32;;;;;;;11.90;11.17;;;;;;;11.45;83.41;93007.03;5068108;28;20257;-71
2022/10/15 01:41:04;;;;;;;11.23;10.60;;;;;;;11.38;83.47;93011.00;5058174;28;20202;-71
2022/10/15 01:43:42;;;;;;;11.43;10.73;;;;;;;11.34;83.92;93005.53;5068051;28;20242;-71
2022/10/15 01:46:16;;;;;;;11.37;10.50;;;;;;;11.48;83.49;93010.91;5068341;28;20177;-71
2022/10/15 01:48:42;;;;;;;11.37;10.67;;;;;;;11.44;82.94;93002.84;5068594;28;20225;-71
2022/10/15 01:51:10;;;;;;;10.90;10.20;;;;;;;11.60;82.26;93008.72;5069494;28;20274;-70
2022/10/15 01:53:37;;;;;;;10.90;10.30;;;;;;;11.41;82.25;92992.91;5068443;28;20301;-71
2022/10/15 01:56:11;;;;;;;10.63;9.80;;;;;;;11.44;82.46;92992.38;5069345;28;20204;-71
2022/10/15 01:58:41;;;;;;;10.83;10.23;;;;;;;11.52;81.68;92999.63;5068692;28;20236;-71
2022/10/15 02:01:07;;;;;;;11.57;10.60;;;;;;;11.56;81.88;93012.94;5068259;28;20290;-71
2022/10/15 02:03:43;;;;;;;9.93;9.33;;;;;;;11.48;81.81;93008.28;5067952;28;20225;-71
2022/10/15 02:06:16;;;;;;;9.67;9.07;;;;;;;11.57;80.86;93004.03;5068113;28;20276;-70
2022/10/15 02:09:00;;;;;;;9.67;9.07;;;;;;;11.59;81.46;93007.16;5068122;28;20248;-70
2022/10/15 02:11:25;;;;;;;10.23;9.53;;;;;;;11.63;80.31;93016.03;5068300;28;20209;-71
2022/10/15 02:14:01;;;;;;;11.27;10.23;;;;;;;11.64;80.81;93012.38;5068383;28;20237;-71
2022/10/15 02:16:42;;;;;;;10.43;9.73;;;;;;;11.58;80.94;93003.00;5068408;28;20198;-71
2022/10/15 02:19:20;;;;;;;9.87;9.20;;;;;;;11.67;80.99;93009.22;5069663;28;20235;-70
2022/10/15 02:21:57;;;;;;;11.37;10.53;;;;;;;11.63;81.78;93006.38;5072920;28;20185;-71
2022/10/15 02:24:31;;;;;;;9.87;9.03;;;;;;;11.69;79.61;92996.66;5070916;28;20243;-71
2022/10/15 02:27:00;;;;;;;9.87;9.27;;;;;;;11.66;79.58;93008.44;5072439;28;20185;-71
2022/10/15 02:29:31;;;;;;;11.33;10.63;;;;;;;11.78;78.66;93016.69;5070725;28;20217;-71
2022/10/15 02:31:59;;;;;;;10.83;10.10;;;;;;;11.62;79.59;92990.94;5072079;28;20213;-70
2022/10/15 02:34:28;;;;;;;9.80;9.10;;;;;;;11.60;80.38;93006.09;5071344;28;20230;-71
2022/10/15 02:36:57;;;;;;;11.27;10.53;;;;;;;11.63;79.49;93008.19;5071521;28;20197;-70
2022/10/15 02:39:23;;;;;;;11.60;10.60;;;;;;;11.69;79.23;93014.97;5071073;28;20247;-71
2022/10/15 02:41:50;;;;;;;9.67;9.17;;;;;;;11.57;78.70;93004.81;5071129;28;20199;-71
2022/10/15 02:44:15;;;;;;;11.23;10.47;;;;;;;11.63;80.66;93013.44;5071832;28;20261;-70
2022/10/15 02:46:41;;;;;;;9.67;9.10;;;;;;;11.62;80.45;93004.00;5071871;28;20190;-71
2022/10/15 02:49:06;;;;;;;10.63;10.03;;;;;;;11.64;80.93;93012.38;5071539;28;20229;-70
2022/10/15 02:51:33;;;;;;;11.03;10.23;;;;;;;11.65;79.97;92995.63;5069757;28;21506;-68
2022/10/15 02:53:59;;;;;;;11.07;10.40;;;;;;;11.76;79.26;93020.66;5071024;28;20225;-68
2022/10/15 02:56:25;;;;;;;10.73;9.93;;;;;;;11.65;80.60;93013.94;5071663;28;20197;-67
2022/10/15 02:58:50;;;;;;;10.27;9.73;;;;;;;11.73;80.68;93008.13;5060059;28;20230;-67
2022/10/15 03:01:16;;;;;;;9.90;9.10;;;;;;;11.56;80.94;92994.66;5050518;28;20186;-67
2022/10/15 03:03:41;;;;;;;11.20;10.40;;;;;;;11.67;80.53;93014.44;5049069;28;20360;-67
2022/10/15 03:06:07;;;;;;;10.97;10.17;;;;;;;11.67;80.36;93009.22;5050808;28;20199;-66
2022/10/15 03:08:32;;;;;;;10.40;9.70;;;;;;;11.60;80.74;93003.47;5049542;28;20234;-67
2022/10/15 03:11:01;;;;;;;10.50;9.90;;;;;;;11.45;81.19;92995.78;5051186;28;21186;-67
2022/10/15 03:13:27;;;;;;;11.03;10.30;;;;;;;11.54;81.01;93004.59;5057834;28;20233;-67
2022/10/15 03:15:52;;;;;;;11.27;10.40;;;;;;;11.47;80.99;93014.59;5071121;28;20197;-66
2022/10/15 03:18:18;;;;;;;11.07;10.10;;;;;;;11.51;81.29;93011.16;5070321;28;20788;-65
2022/10/15 03:20:46;;;;;;;10.97;10.27;;;;;;;11.55;81.41;93009.53;5070692;28;20215;-66
2022/10/15 03:23:11;;;;;;;11.90;10.93;;;;;;;11.59;80.45;93001.94;5070512;28;20238;-66
2022/10/15 03:25:36;;;;;;;11.17;10.47;;;;;;;11.72;80.06;93017.03;5069706;28;20203;-69
2022/10/15 03:28:02;;;;;;;12.83;11.93;;;;;;;11.57;80.87;93017.91;5070191;28;20225;-66
2022/10/15 03:30:27;;;;;;;13.17;12.30;;;;;;;11.65;80.72;93016.56;5068232;28;20229;-67
2022/10/15 03:32:53;;;;;;;11.03;10.33;;;;;;;11.67;80.60;93019.69;5070690;28;20194;-67
2022/10/15 03:35:18;;;;;;;12.70;11.47;;;;;;;11.51;81.82;93020.81;5069821;28;20183;-65
2022/10/15 03:37:43;;;;;;;11.50;10.70;;;;;;;11.45;81.20;93006.22;5070710;28;20194;-67
2022/10/15 03:40:09;;;;;;;12.50;11.70;;;;;;;11.64;80.58;93015.78;5070620;28;20194;-68
2022/10/15 03:42:34;;;;;;;11.47;10.57;;;;;;;11.67;83.46;93017.06;5071419;28;20179;-66
2022/10/15 03:45:00;;;;;;;11.57;10.90;;;;;;;11.78;83.87;93016.69;5070498;28;20241;-71
2022/10/15 03:47:25;;;;;;;11.57;10.67;;;;;;;11.70;81.00;93016.53;5070371;28;20249;-70
2022/10/15 03:49:50;;;;;;;11.20;10.50;;;;;;;11.65;80.57;93021.78;5070234;28;20225;-70
2022/10/15 03:52:16;;;;;;;11.40;10.80;;;;;;;11.55;80.98;93016.63;5069129;28;20196;-70
2022/10/15 03:54:42;;;;;;;10.80;10.13;;;;;;;11.38;80.64;93014.38;5069982;28;20285;-70
2022/10/15 03:57:07;;;;;;;12.00;10.97;;;;;;;11.42;81.57;93015.41;5070054;28;20214;-70
2022/10/15 03:59:33;;;;;;;12.03;11.23;;;;;;;11.43;81.88;93016.19;5068682;28;20769;-70
2022/10/15 04:01:58;;;;;;;11.73;10.83;;;;;;;11.34;81.60;93021.22;5069886;28;20254;-70
2022/10/15 04:04:24;;;;;;;12.17;11.27;;;;;;;11.31;81.29;93021.78;5068563;28;20237;-69
2022/10/15 04:06:49;;;;;;;11.33;10.57;;;;;;;11.09;82.30;93016.94;5068822;28;20271;-71
2022/10/15 04:09:14;;;;;;;11.97;11.27;;;;;;;11.16;82.49;93025.25;5068808;28;20256;-69
2022/10/15 04:11:40;;;;;;;11.07;10.37;;;;;;;11.14;82.54;93019.50;5068536;28;20210;-70
2022/10/15 04:14:05;;;;;;;11.43;10.73;;;;;;;11.00;83.82;93029.00;5068943;28;20234;-70
2022/10/15 04:16:31;;;;;;;11.90;11.10;;;;;;;10.93;84.86;93025.91;5069957;28;20357;-71
2022/10/15 04:18:57;;;;;;;11.07;10.37;;;;;;;10.85;84.77;93018.66;5070221;28;20288;-70
2022/10/15 04:21:23;;;;;;;11.43;10.73;;;;;;;10.86;84.70;93022.06;5069038;28;20203;-71
2022/10/15 04:23:49;;;;;;;11.53;10.33;;;;;;;10.97;84.63;93026.94;5070275;28;20221;-71
2022/10/15 04:26:14;;;;;;;11.63;10.50;;;;;;;10.84;85.83;93029.38;5068796;28;20181;-70
2022/10/15 04:28:39;;;;;;;11.37;10.57;;;;;;;10.79;86.80;93032.78;5070200;28;20807;-70
2022/10/15 04:31:05;;;;;;;12.90;12.00;;;;;;;10.90;86.63;93031.69;5069758;28;20239;-71
2022/10/15 04:33:30;;;;;;;12.67;11.57;;;;;;;10.94;86.45;93039.78;5069589;28;20231;-71
2022/10/15 04:36:04;;;;;;;14.33;13.33;;;;;;;10.94;87.35;93037.16;5070037;28;20281;-70
2022/10/15 04:38:29;;;;;;;12.97;11.93;;;;;;;10.79;89.29;93038.00;5069612;28;20224;-69
2022/10/15 04:41:12;;;;;;;12.50;11.47;;;;;;;10.87;89.40;93037.44;5069662;28;20255;-70
2022/10/15 04:43:39;;;;;;;12.33;11.43;;;;;;;10.81;89.14;93027.28;5068564;28;20245;-70
2022/10/15 04:46:06;;;;;;;12.53;11.63;;;;;;;10.81;89.57;93035.91;5069930;28;20254;-70
2022/10/15 04:48:34;;;;;;;12.20;11.40;;;;;;;11.01;88.02;93045.47;5066868;28;20224;-70
2022/10/15 04:51:19;;;;;;;12.57;11.57;;;;;;;10.88;88.71;93054.69;5069039;28;20273;-71
2022/10/15 04:53:45;;;;;;;12.07;11.23;;;;;;;10.80;89.97;93052.63;5068894;28;20232;-70
2022/10/15 04:56:14;;;;;;;13.87;12.50;;;;;;;10.62;90.53;93039.38;5069317;28;20201;-70
2022/10/15 04:58:41;;;;;;;11.60;10.80;;;;;;;10.77;90.51;93044.56;5068572;28;20290;-70
2022/10/15 05:01:12;;;;;;;12.60;11.57;;;;;;;10.79;90.71;93060.72;5069778;28;20193;-70
2022/10/15 05:03:38;;;;;;;11.97;11.17;;;;;;;10.85;90.61;93060.44;5068241;28;20237;-70
2022/10/15 05:06:07;;;;;;;14.77;13.60;;;;;;;10.88;90.26;93059.91;5069683;28;20186;-69
2022/10/15 05:08:34;;;;;;;12.70;11.80;;;;;;;10.99;89.92;93060.63;5068538;28;20223;-70
2022/10/15 05:11:11;;;;;;;11.93;11.00;;;;;;;11.02;90.00;93062.69;5069312;28;20211;-70
2022/10/15 05:13:36;;;;;;;11.80;10.90;;;;;;;11.10;90.63;93062.94;5068817;28;20227;-70
2022/10/15 05:16:16;;;;;;;12.03;11.10;;;;;;;11.13;89.95;93067.59;5068704;28;20247;-70
2022/10/15 05:18:44;;;;;;;12.90;11.87;;;;;;;11.14;90.04;93071.00;5068927;28;20266;-70
2022/10/15 05:21:11;;;;;;;12.57;11.57;;;;;;;11.13;90.44;93072.84;5069678;28;20232;-70
2022/10/15 05:23:37;;;;;;;12.60;11.80;;;;;;;11.26;88.85;93063.63;5069189;28;20235;-71
2022/10/15 05:26:05;;;;;;;12.13;11.13;;;;;;;11.25;89.15;93075.13;5069309;28;20941;-70
2022/10/15 05:28:31;;;;;;;16.47;15.50;;;;;;;11.26;88.72;93067.03;5068097;28;20259;-71
2022/10/15 05:31:03;;;;;;;12.00;11.17;;;;;;;11.21;89.54;93080.09;5069265;28;20216;-70
2022/10/15 05:33:28;;;;;;;11.80;11.00;;;;;;;11.16;89.83;93072.28;5068893;28;20767;-70
2022/10/15 05:35:53;;;;;;;12.50;11.70;;;;;;;11.15;89.54;93068.13;5068818;28;20185;-71
2022/10/15 05:38:19;;;;;;;12.87;11.93;;;;;;;11.36;88.87;93077.41;5067698;28;20955;-70
2022/10/15 05:40:48;;;;;;;12.63;11.57;;;;;;;11.35;88.87;93083.69;5067715;28;20177;-70
2022/10/15 05:43:14;;;;;;;12.57;11.57;;;;;;;11.51;88.48;93091.41;5068202;28;20286;-70
2022/10/15 05:45:39;;;;;;;12.13;11.03;;;;;;;11.53;88.46;93091.94;5069373;28;20195;-71
2022/10/15 05:48:04;;;;;;;12.23;11.43;;;;;;;11.63;88.38;93092.66;5068350;28;20233;-70
2022/10/15 05:50:30;;;;;;;12.30;11.23;;;;;;;11.67;88.09;93098.16;5069511;28;20228;-71
2022/10/15 05:52:55;;;;;;;13.50;12.40;;;;;;;11.77;87.46;93100.66;5068757;28;20239;-69
2022/10/15 05:55:21;;;;;;;13.23;12.10;;;;;;;11.76;87.13;93088.66;5072911;28;20196;-70
2022/10/15 05:57:46;;;;;;;13.03;12.00;;;;;;;11.87;87.04;93109.25;5072799;28;20209;-70
2022/10/15 06:00:12;;;;;;;12.63;11.73;;;;;;;11.91;86.96;93104.22;5072833;28;20252;-71
2022/10/15 06:02:37;;;;;;;11.67;10.67;;;;;;;12.02;86.08;93101.25;5073056;28;20189;-70
2022/10/15 06:05:03;;;;;;;11.57;10.57;;;;;;;12.14;85.23;93104.28;5073207;28;20228;-71
2022/10/15 06:07:31;;;;;;;12.73;11.63;;;;;;;12.19;84.16;93111.31;5073392;28;20243;-71
2022/10/15 06:09:56;;;;;;;12.27;11.20;;;;;;;12.28;83.85;93114.91;5071583;28;20228;-69
2022/10/15 06:12:21;;;;;;;11.13;10.33;;;;;;;12.15;84.21;93110.31;5073322;28;20181;-70
2022/10/15 06:14:47;;;;;;;16.97;15.33;;;;;;;12.05;84.77;93110.38;5072257;28;20221;-70
2022/10/15 06:17:12;;;;;;;16.70;12.83;;;;;;;12.15;84.70;93116.34;5072919;28;20189;-71
2022/10/15 06:19:37;;;;;;;13.30;12.30;;;;;;;12.12;85.01;93122.13;5073052;28;20221;-70
2022/10/15 06:22:03;;;;;;;11.73;10.90;;;;;;;12.15;84.95;93121.56;5072331;28;20227;-71
2022/10/15 06:24:28;;;;;;;11.83;10.87;;;;;;;12.28;84.40;93120.16;5072450;28;20221;-71
2022/10/15 06:26:53;;;;;;;11.73;11.00;;;;;;;12.48;83.14;93119.97;5072894;28;20188;-70
2022/10/15 06:29:19;;;;;;;12.27;11.47;;;;;;;12.62;82.48;93126.09;5072237;28;20280;-71
2022/10/15 06:31:44;;;;;;;11.50;10.73;;;;;;;12.69;82.04;93122.09;5072899;28;20209;-70
2022/10/15 06:34:09;;;;;;;12.13;11.20;;;;;;;12.72;82.33;93129.41;5072111;28;20313;-70
2022/10/15 06:36:35;;;;;;;11.17;10.17;;;;;;;12.64;81.67;93135.25;5071533;28;20177;-71
2022/10/15 06:39:01;;;;;;;11.73;10.83;;;;;;;12.34;82.57;93134.75;5071055;28;20215;-70
2022/10/15 06:41:26;;;;;;;12.90;12.00;;;;;;;12.09;83.55;93132.34;5072492;28;20496;-71
2022/10/15 06:43:53;;;;;;;12.80;11.80;;;;;;;12.12;83.96;93144.91;5070406;28;20225;-70
2022/10/15 06:46:18;;;;;;;12.30;11.30;;;;;;;11.97;84.28;93126.72;5072035;28;20200;-71
2022/10/15 06:48:43;;;;;;;12.67;11.70;;;;;;;12.08;84.13;93133.38;5072253;28;20229;-71
2022/10/15 06:51:10;;;;;;;11.40;10.60;;;;;;;12.27;83.39;93121.97;5072239;28;20312;-71
2022/10/15 06:53:35;;;;;;;12.50;11.53;;;;;;;12.44;82.17;93139.88;5070361;28;20217;-70
2022/10/15 06:56:02;;;;;;;12.67;11.67;;;;;;;12.36;82.40;93146.50;5072526;28;20185;-70
2022/10/15 06:58:28;;;;;;;11.73;10.83;;;;;;;12.28;83.23;93141.09;5071455;28;20224;-71
2022/10/15 07:01:03;;;;;;;13.23;11.63;;;;;;;12.55;79.95;93131.66;5071893;28;20193;-70
2022/10/15 07:03:28;;;;;;;14.63;13.33;;;;;;;12.50;80.60;93136.94;5071017;28;20317;-71
2022/10/15 07:05:54;;;;;;;13.30;12.20;;;;;;;12.58;79.61;93135.56;5071276;28;20198;-71
2022/10/15 07:08:20;;;;;;;12.03;11.23;;;;;;;12.66;80.01;93151.47;5070384;28;20233;-71
2022/10/15 07:10:46;;;;;;;13.57;12.40;;;;;;;12.70;79.81;93151.69;5071554;28;20254;-70
2022/10/15 07:13:11;;;;;;;12.60;11.70;;;;;;;12.67;79.07;93153.00;5071301;28;20292;-71
2022/10/15 07:15:36;;;;;;;12.50;11.53;;;;;;;12.82;78.77;93152.09;5071758;28;20699;-71
2022/10/15 07:18:02;;;;;;;12.57;11.57;;;;;;;12.95;77.24;93156.66;5071096;28;20289;-71
2022/10/15 07:20:29;;;;;;;12.57;11.63;;;;;;;12.85;78.16;93156.78;5072002;28;20181;-70
2022/10/15 07:22:56;;;;;;;11.40;10.63;;;;;;;12.96;77.85;93152.97;5070541;28;20185;-69
2022/10/15 07:25:22;;;;;;;12.40;11.40;;;;;;;13.00;77.89;93147.97;5071696;28;20896;-70
2022/10/15 07:27:47;;;;;;;12.57;11.40;;;;;;;13.23;76.75;93155.81;5071477;28;20193;-71
2022/10/15 07:30:12;;;;;;;13.27;11.90;;;;;;;13.14;77.76;93151.47;5070750;28;20213;-70
2022/10/15 07:32:38;;;;;;;11.83;10.77;;;;;;;13.19;76.56;93146.97;5070407;28;20294;-70
2022/10/15 07:35:04;;;;;;;13.60;12.43;;;;;;;13.12;76.29;93148.38;5070329;28;20182;-70
2022/10/15 07:37:30;;;;;;;13.90;12.40;;;;;;;13.13;76.11;93155.97;5071747;28;20190;-70
2022/10/15 07:39:55;;;;;;;12.37;11.30;;;;;;;12.96;76.45;93159.00;5071076;28;20217;-70
2022/10/15 07:42:21;;;;;;;12.20;11.17;;;;;;;12.83;77.31;93159.66;5071898;28;20212;-70
2022/10/15 07:44:46;;;;;;;12.67;11.23;;;;;;;12.85;77.22;93154.94;5070799;28;20352;-70
2022/10/15 07:47:12;;;;;;;12.43;11.47;;;;;;;12.98;77.39;93159.50;5070804;28;20181;-70
2022/10/15 07:49:37;;;;;;;12.93;11.97;;;;;;;13.25;76.12;93155.53;5071282;28;20232;-70
2022/10/15 07:52:02;;;;;;;12.33;11.43;;;;;;;13.28;76.44;93154.97;5071308;28;20209;-72
2022/10/15 07:54:28;;;;;;;12.47;11.33;;;;;;;13.17;76.12;93164.81;5070932;28;20227;-70
2022/10/15 07:56:53;;;;;;;12.37;11.37;;;;;;;13.11;75.16;93165.16;5071220;28;20208;-70
2022/10/15 07:59:19;;;;;;;12.07;11.07;;;;;;;13.30;74.61;93150.25;5070652;28;20245;-70
2022/10/15 08:01:44;;;;;;;12.87;11.67;;;;;;;13.32;74.69;93156.78;5071220;28;20181;-70
2022/10/15 08:04:10;;;;;;;12.17;11.13;;;;;;;13.39;73.88;93167.69;5070706;28;20263;-70
2022/10/15 08:06:35;;;;;;;13.30;12.00;;;;;;;13.57;74.03;93163.53;5069694;28;20951;-71
2022/10/15 08:09:03;;;;;;;11.60;10.70;;;;;;;13.70;72.54;93162.81;5070694;28;20241;-71
2022/10/15 08:11:29;;;;;;;12.03;10.83;;;;;;;13.78;72.35;93123.63;5070515;28;20210;-70
2022/10/15 08:13:54;;;;;;;12.90;11.83;;;;;;;14.20;70.94;93165.50;5069550;28;20320;-70
2022/10/15 08:16:19;;;;;;;11.23;10.33;;;;;;;14.11;71.22;93164.59;5069754;28;20173;-71
2022/10/15 08:18:45;;;;;;;11.97;11.00;;;;;;;13.83;71.88;93154.25;5070168;28;20225;-70
2022/10/15 08:21:11;;;;;;;12.70;11.70;;;;;;;13.86;72.18;93157.09;5071321;28;20185;-69
2022/10/15 08:23:36;;;;;;;11.83;11.03;;;;;;;13.83;71.96;93155.03;5069458;28;20737;-70
2022/10/15 08:26:02;;;;;;;11.47;10.43;;;;;;;13.53;72.07;93157.28;5069540;28;20169;-70
2022/10/15 08:28:28;;;;;;;11.93;10.97;;;;;;;13.37;72.76;93155.94;5069485;28;20232;-71
2022/10/15 08:30:56;;;;;;;11.97;11.07;;;;;;;13.40;71.56;93153.50;5070675;28;20878;-70
2022/10/15 08:33:22;;;;;;;12.07;11.17;;;;;;;13.55;71.65;93155.97;5069873;28;20218;-70
2022/10/15 08:35:47;;;;;;;11.53;10.70;;;;;;;13.45;71.23;93137.72;5070790;28;20213;-70
2022/10/15 08:38:12;;;;;;;12.20;11.17;;;;;;;13.68;70.44;93144.75;5069814;28;20237;-70
2022/10/15 08:40:41;;;;;;;12.90;11.70;;;;;;;13.67;70.36;93153.69;5070080;28;20204;-70
2022/10/15 08:43:20;;;;;;;11.93;10.93;;;;;;;13.81;70.40;93144.03;5069671;28;20232;-70
2022/10/15 08:45:48;;;;;;;11.53;10.57;;;;;;;13.98;69.27;93154.81;5070451;28;20185;-70
2022/10/15 08:48:24;;;;;;;13.30;11.30;;;;;;;13.93;67.76;93157.50;5069522;28;20225;-70
2022/10/15 08:50:55;;;;;;;11.47;10.67;;;;;;;13.91;69.38;93151.00;5069685;28;20249;-70
2022/10/15 08:53:24;;;;;;;11.20;10.40;;;;;;;14.13;69.22;93145.94;5067888;28;21138;-70
2022/10/15 08:55:54;;;;;;;11.53;10.53;;;;;;;14.10;69.56;93144.63;5069824;28;20200;-70
2022/10/15 08:58:33;;;;;;;11.43;10.53;;;;;;;14.18;69.52;93153.72;5069269;28;20233;-71
2022/10/15 09:01:26;;;;;;;13.73;12.67;;;;;;;14.12;68.89;93150.41;5070060;28;20193;-70
2022/10/15 09:04:20;;;;;;;9.93;9.27;;;;;;;14.01;69.70;93150.81;5069764;28;20238;-70
2022/10/15 09:06:52;;;;;;;10.53;9.80;;;;;;;14.17;68.26;93147.69;5060934;28;20650;-69
2022/10/15 09:09:33;;;;;;;11.73;10.73;;;;;;;14.29;67.96;93149.88;5066499;28;20237;-70
2022/10/15 09:12:05;;;;;;;11.10;10.13;;;;;;;14.51;67.01;93163.19;5069266;28;20216;-71
2022/10/15 09:14:36;;;;;;;11.23;10.43;;;;;;;14.56;66.54;93162.31;5068220;28;20327;-70
2022/10/15 09:17:16;;;;;;;11.97;11.00;;;;;;;14.70;66.60;93142.88;5067952;28;20181;-70
2022/10/15 09:19:43;;;;;;;10.60;9.93;;;;;;;14.69;64.39;93164.19;5069453;28;20285;-69
2022/10/15 09:22:13;;;;;;;11.63;10.53;;;;;;;14.74;63.62;93164.88;5068009;28;20291;-69
2022/10/15 09:24:39;;;;;;;11.27;10.47;;;;;;;14.81;63.84;93161.88;5069099;28;20225;-70
2022/10/15 09:27:08;;;;;;;14.37;13.30;;;;;;;15.04;64.08;93161.72;5069210;28;20240;-70
2022/10/15 09:29:44;;;;;;;11.13;10.13;;;;;;;14.91;63.41;93164.34;5068782;28;20251;-71
2022/10/15 09:32:38;;;;;;;12.40;11.50;;;;;;;15.12;63.15;93162.88;5069176;28;20231;-69
2022/10/15 09:35:14;;;;;;;12.93;11.97;;;;;;;15.32;62.18;93162.47;5068236;28;20217;-70
2022/10/15 09:38:03;;;;;;;11.83;11.03;;;;;;;15.40;60.80;93153.94;5068816;28;20199;-70
2022/10/15 09:40:50;;;;;;;11.50;10.80;;;;;;;15.55;61.21;93162.28;5068887;28;20213;-70
2022/10/15 09:43:26;;;;;;;11.47;10.67;;;;;;;15.54;60.24;93152.84;5068147;28;20327;-71
2022/10/15 09:45:51;;;;;;;17.13;14.97;;;;;;;15.60;60.79;93143.78;5069609;28;20244;-70
2022/10/15 09:48:18;;;;;;;12.00;11.00;;;;;;;15.83;58.80;93147.22;5068279;28;20247;-71
2022/10/15 09:50:54;;;;;;;10.50;9.80;;;;;;;15.38;59.58;93148.19;5068537;28;20213;-70
2022/10/15 09:53:38;;;;;;;11.13;10.37;;;;;;;15.45;60.26;93153.84;5068499;28;20239;-70
2022/10/15 09:56:09;;;;;;;14.90;13.30;;;;;;;15.65;60.61;93156.03;5068070;28;20189;-70
2022/10/15 09:58:55;;;;;;;11.93;10.73;;;;;;;15.62;60.17;93152.16;5067718;28;20225;-70
2022/10/15 10:01:23;;;;;;;11.47;10.57;;;;;;;15.97;59.88;93153.22;5084312;28;20200;-71
2022/10/15 10:04:16;;;;;;;11.90;10.80;;;;;;;16.18;58.79;93159.59;5068452;28;20232;-70
2022/10/15 10:06:44;;;;;;;9.93;9.23;;;;;;;16.04;57.92;93164.13;5079776;28;20201;-70
2022/10/15 10:09:29;;;;;;;11.53;10.63;;;;;;;15.73;58.29;93169.31;5068501;28;20284;-70
2022/10/15 10:12:01;;;;;;;11.37;10.30;;;;;;;15.44;60.01;93149.66;5069538;28;20243;-70
2022/10/15 10:14:43;;;;;;;11.43;10.57;;;;;;;15.53;62.73;93158.41;5067479;28;20232;-70
2022/10/15 10:17:23;;;;;;;12.30;11.47;;;;;;;16.03;58.09;93167.84;5068858;28;20201;-70
2022/10/15 10:20:18;;;;;;;12.33;11.13;;;;;;;16.02;55.36;93166.28;5068808;28;20236;-70
2022/10/15 10:22:48;;;;;;;9.87;9.27;;;;;;;16.06;55.81;93164.63;5068770;28;20201;-71
2022/10/15 10:25:25;;;;;;;10.33;9.53;;;;;;;15.89;55.16;93159.22;5069064;28;20222;-71
2022/10/15 10:27:52;;;;;;;10.53;9.83;;;;;;;15.58;56.93;93158.31;5067528;28;20219;-70
2022/10/15 10:30:18;;;;;;;10.60;9.87;;;;;;;15.53;59.50;93148.63;5068690;28;20209;-70
2022/10/15 10:32:45;;;;;;;11.20;10.30;;;;;;;15.92;56.08;93151.47;5069228;28;20178;-71
2022/10/15 10:35:22;;;;;;;10.20;9.63;;;;;;;16.09;57.63;93148.97;5068439;28;20213;-70
2022/10/15 10:37:48;;;;;;;10.67;9.80;;;;;;;16.45;53.86;93148.94;5067748;28;20193;-70
2022/10/15 10:40:23;;;;;;;10.50;9.70;;;;;;;16.67;53.59;93154.19;5069147;28;20241;-70
2022/10/15 10:43:08;;;;;;;10.47;9.77;;;;;;;16.53;52.67;93150.88;5071362;28;20185;-70
2022/10/15 10:45:34;;;;;;;10.37;9.60;;;;;;;16.37;55.41;93152.31;5072544;28;20274;-70
2022/10/15 10:48:18;;;;;;;10.63;9.93;;;;;;;16.52;52.29;93149.31;5072341;28;20237;-70
2022/10/15 10:50:43;;;;;;;10.30;9.70;;;;;;;16.33;52.92;93134.75;5072595;28;20213;-70
2022/10/15 10:53:24;;;;;;;10.70;9.80;;;;;;;16.14;54.27;93127.00;5071679;28;20252;-70
2022/10/15 10:55:53;;;;;;;10.63;9.87;;;;;;;16.61;52.76;93147.50;5071784;28;20209;-71
2022/10/15 10:58:21;;;;;;;10.53;9.83;;;;;;;16.69;52.99;93138.06;5070966;28;20236;-70
2022/10/15 11:00:54;;;;;;;10.20;9.30;;;;;;;15.88;54.21;93086.53;5072648;28;20216;-70
2022/10/15 11:03:30;;;;;;;11.07;10.30;;;;;;;16.32;53.81;93146.34;5071236;28;20221;-70
2022/10/15 11:06:10;;;;;;;10.07;9.37;;;;;;;15.87;53.95;93145.56;5071394;28;20215;-70
2022/10/15 11:08:58;;;;;;;11.00;10.20;;;;;;;15.62;55.98;93141.63;5062297;28;20229;-70
2022/10/15 11:11:34;;;;;;;10.47;9.67;;;;;;;15.37;56.45;93128.97;5051354;28;20221;-70
2022/10/15 11:14:29;;;;;;;10.97;10.17;;;;;;;15.40;56.37;93136.31;5048779;28;20261;-70
2022/10/15 11:16:59;;;;;;;11.97;10.90;;;;;;;15.26;57.34;93124.19;5032743;28;20779;-70
2022/10/15 11:19:37;;;;;;;20.47;14.90;;;;;;;15.30;59.19;93123.31;5047966;28;20214;-70
2022/10/15 11:22:23;;;;;;;17.53;13.27;;;;;;;15.73;56.67;93129.81;5043555;28;20170;-69
2022/10/15 11:25:00;;;;;;;11.20;10.20;;;;;;;15.72;56.15;93135.38;5042611;28;20219;-71
2022/10/15 11:27:38;;;;;;;11.90;10.80;;;;;;;15.81;56.56;93136.97;5046898;28;20197;-71
2022/10/15 11:30:31;;;;;;;10.57;9.87;;;;;;;15.81;54.90;93134.34;5049679;28;20233;-70